Terminal Aerodrome Forecast
Issued by NWS

Home | Current Version | Previous Version | Graphics & Text | Print | Product List | Glossary On
Versions: 1 2 3 4 5 6 7 8 9 10 11 12 13 14 15
000
FTUS43 KFGF 290100 AAA
TAFBJI
TAF AMD
KBJI 290157Z 2902/2924 31011KT 2SM -FZRA BR OVC002
     FM290400 30015KT 5SM BR OVC007
     FM290700 31015G22KT P6SM OVC009=

USA.gov is the U.S. government's official web portal to all federal, state and local government web resources and services.